sensor_id;sensor_type;location;lat;lon;timestamp;P1;durP1;ratioP1;P2;durP2;ratioP2
11098;SDS011;12223;42.650;23.364;2023-09-30T00:01:24;2.25;;;1.35;;
11098;SDS011;12223;42.650;23.364;2023-09-30T00:07:12;1.77;;;1.10;;
11098;SDS011;12223;42.650;23.364;2023-09-30T00:09:39;1.95;;;1.20;;
11098;SDS011;12223;42.650;23.364;2023-09-30T00:12:08;2.10;;;1.33;;
11098;SDS011;12223;42.650;23.364;2023-09-30T00:14:34;2.28;;;1.38;;
11098;SDS011;12223;42.650;23.364;2023-09-30T00:17:03;2.22;;;1.35;;
11098;SDS011;12223;42.650;23.364;2023-09-30T00:19:29;1.55;;;1.08;;
11098;SDS011;12223;42.650;23.364;2023-09-30T00:21:58;2.00;;;1.30;;
11098;SDS011;12223;42.650;23.364;2023-09-30T00:24:26;2.40;;;1.50;;
11098;SDS011;12223;42.650;23.364;2023-09-30T00:26:54;2.38;;;1.50;;
11098;SDS011;12223;42.650;23.364;2023-09-30T00:29:23;1.98;;;1.20;;
11098;SDS011;12223;42.650;23.364;2023-09-30T00:31:49;2.88;;;1.63;;
11098;SDS011;12223;42.650;23.364;2023-09-30T00:34:16;1.90;;;1.10;;
11098;SDS011;12223;42.650;23.364;2023-09-30T00:36:45;2.30;;;1.38;;
11098;SDS011;12223;42.650;23.364;2023-09-30T00:39:12;2.20;;;1.27;;
11098;SDS011;12223;42.650;23.364;2023-09-30T00:41:39;2.22;;;1.33;;
11098;SDS011;12223;42.650;23.364;2023-09-30T00:44:06;1.70;;;1.00;;
11098;SDS011;12223;42.650;23.364;2023-09-30T00:46:36;2.00;;;1.20;;
11098;SDS011;12223;42.650;23.364;2023-09-30T00:52:27;2.25;;;1.35;;
11098;SDS011;12223;42.650;23.364;2023-09-30T00:54:56;2.13;;;1.27;;
11098;SDS011;12223;42.650;23.364;2023-09-30T00:57:23;2.05;;;1.27;;
11098;SDS011;12223;42.650;23.364;2023-09-30T00:59:51;2.20;;;1.30;;
11098;SDS011;12223;42.650;23.364;2023-09-30T01:02:19;2.40;;;1.33;;
11098;SDS011;12223;42.650;23.364;2023-09-30T01:04:48;1.90;;;1.17;;
11098;SDS011;12223;42.650;23.364;2023-09-30T01:10:36;1.70;;;1.03;;
11098;SDS011;12223;42.650;23.364;2023-09-30T01:13:03;1.43;;;0.90;;
11098;SDS011;12223;42.650;23.364;2023-09-30T01:15:30;2.13;;;1.25;;
11098;SDS011;12223;42.650;23.364;2023-09-30T01:17:58;2.27;;;1.30;;
11098;SDS011;12223;42.650;23.364;2023-09-30T01:20:26;1.95;;;1.27;;
11098;SDS011;12223;42.650;23.364;2023-09-30T01:26:16;2.53;;;1.50;;
11098;SDS011;12223;42.650;23.364;2023-09-30T01:28:43;1.63;;;1.05;;
11098;SDS011;12223;42.650;23.364;2023-09-30T01:31:10;1.80;;;1.13;;
11098;SDS011;12223;42.650;23.364;2023-09-30T01:33:37;1.83;;;1.17;;
11098;SDS011;12223;42.650;23.364;2023-09-30T01:36:05;1.53;;;1.03;;
11098;SDS011;12223;42.650;23.364;2023-09-30T01:38:32;1.73;;;1.20;;
11098;SDS011;12223;42.650;23.364;2023-09-30T01:41:01;1.67;;;1.10;;
11098;SDS011;12223;42.650;23.364;2023-09-30T01:43:30;1.87;;;1.13;;
11098;SDS011;12223;42.650;23.364;2023-09-30T01:45:56;1.90;;;1.20;;
11098;SDS011;12223;42.650;23.364;2023-09-30T01:48:23;2.15;;;1.30;;
11098;SDS011;12223;42.650;23.364;2023-09-30T01:50:50;1.83;;;1.23;;
11098;SDS011;12223;42.650;23.364;2023-09-30T01:53:17;2.58;;;1.55;;
11098;SDS011;12223;42.650;23.364;2023-09-30T01:55:44;2.42;;;1.45;;
11098;SDS011;12223;42.650;23.364;2023-09-30T01:58:11;2.40;;;1.40;;
11098;SDS011;12223;42.650;23.364;2023-09-30T02:00:39;2.35;;;1.40;;
11098;SDS011;12223;42.650;23.364;2023-09-30T02:03:05;1.42;;;1.02;;
11098;SDS011;12223;42.650;23.364;2023-09-30T02:05:33;1.88;;;1.20;;
11098;SDS011;12223;42.650;23.364;2023-09-30T02:08:01;1.90;;;1.23;;
11098;SDS011;12223;42.650;23.364;2023-09-30T02:10:31;1.70;;;1.10;;
11098;SDS011;12223;42.650;23.364;2023-09-30T02:12:59;1.80;;;1.20;;
11098;SDS011;12223;42.650;23.364;2023-09-30T02:18:48;1.67;;;1.13;;
11098;SDS011;12223;42.650;23.364;2023-09-30T02:21:15;2.25;;;1.38;;
11098;SDS011;12223;42.650;23.364;2023-09-30T02:23:42;2.20;;;1.40;;
11098;SDS011;12223;42.650;23.364;2023-09-30T02:26:13;2.13;;;1.40;;
11098;SDS011;12223;42.650;23.364;2023-09-30T02:28:40;2.33;;;1.50;;
11098;SDS011;12223;42.650;23.364;2023-09-30T02:31:06;2.67;;;1.60;;
11098;SDS011;12223;42.650;23.364;2023-09-30T02:33:33;2.28;;;1.58;;
11098;SDS011;12223;42.650;23.364;2023-09-30T02:36:06;2.15;;;1.42;;
11098;SDS011;12223;42.650;23.364;2023-09-30T02:38:33;2.17;;;1.40;;
11098;SDS011;12223;42.650;23.364;2023-09-30T02:41:02;2.17;;;1.38;;
11098;SDS011;12223;42.650;23.364;2023-09-30T02:43:29;2.27;;;1.40;;
11098;SDS011;12223;42.650;23.364;2023-09-30T02:45:55;1.73;;;1.20;;
11098;SDS011;12223;42.650;23.364;2023-09-30T02:48:22;2.08;;;1.30;;
11098;SDS011;12223;42.650;23.364;2023-09-30T02:50:49;1.90;;;1.30;;
11098;SDS011;12223;42.650;23.364;2023-09-30T02:56:40;2.70;;;1.67;;
11098;SDS011;12223;42.650;23.364;2023-09-30T02:59:08;2.20;;;1.40;;
11098;SDS011;12223;42.650;23.364;2023-09-30T03:01:36;1.90;;;1.20;;
11098;SDS011;12223;42.650;23.364;2023-09-30T03:04:03;2.15;;;1.38;;
11098;SDS011;12223;42.650;23.364;2023-09-30T03:06:32;2.15;;;1.35;;
11098;SDS011;12223;42.650;23.364;2023-09-30T03:09:00;1.50;;;1.10;;
11098;SDS011;12223;42.650;23.364;2023-09-30T03:11:28;2.13;;;1.25;;
11098;SDS011;12223;42.650;23.364;2023-09-30T03:13:56;1.60;;;1.10;;
11098;SDS011;12223;42.650;23.364;2023-09-30T03:16:24;2.08;;;1.35;;
11098;SDS011;12223;42.650;23.364;2023-09-30T03:18:51;2.03;;;1.30;;
11098;SDS011;12223;42.650;23.364;2023-09-30T03:21:20;1.73;;;1.10;;
11098;SDS011;12223;42.650;23.364;2023-09-30T03:23:47;2.00;;;1.20;;
11098;SDS011;12223;42.650;23.364;2023-09-30T03:26:14;2.20;;;1.35;;
11098;SDS011;12223;42.650;23.364;2023-09-30T03:28:41;2.10;;;1.30;;
11098;SDS011;12223;42.650;23.364;2023-09-30T03:34:31;2.10;;;1.30;;
11098;SDS011;12223;42.650;23.364;2023-09-30T03:36:58;2.03;;;1.25;;
11098;SDS011;12223;42.650;23.364;2023-09-30T03:39:25;1.70;;;1.10;;
11098;SDS011;12223;42.650;23.364;2023-09-30T03:45:14;1.85;;;1.17;;
11098;SDS011;12223;42.650;23.364;2023-09-30T03:47:42;1.75;;;1.08;;
11098;SDS011;12223;42.650;23.364;2023-09-30T03:50:12;1.70;;;1.17;;
11098;SDS011;12223;42.650;23.364;2023-09-30T03:52:40;1.60;;;1.10;;
11098;SDS011;12223;42.650;23.364;2023-09-30T03:55:09;1.87;;;1.17;;
11098;SDS011;12223;42.650;23.364;2023-09-30T03:57:37;2.05;;;1.30;;
11098;SDS011;12223;42.650;23.364;2023-09-30T04:00:04;2.27;;;1.40;;
11098;SDS011;12223;42.650;23.364;2023-09-30T04:02:32;1.70;;;1.10;;
11098;SDS011;12223;42.650;23.364;2023-09-30T04:04:59;1.93;;;1.23;;
11098;SDS011;12223;42.650;23.364;2023-09-30T04:07:31;2.47;;;1.40;;
11098;SDS011;12223;42.650;23.364;2023-09-30T04:09:57;1.90;;;1.20;;
11098;SDS011;12223;42.650;23.364;2023-09-30T04:12:26;1.77;;;1.10;;
11098;SDS011;12223;42.650;23.364;2023-09-30T04:14:53;1.25;;;0.82;;
11098;SDS011;12223;42.650;23.364;2023-09-30T04:17:20;2.30;;;1.40;;
11098;SDS011;12223;42.650;23.364;2023-09-30T04:19:48;1.90;;;1.27;;
11098;SDS011;12223;42.650;23.364;2023-09-30T04:22:16;1.98;;;1.23;;
11098;SDS011;12223;42.650;23.364;2023-09-30T04:24:45;2.63;;;1.50;;
11098;SDS011;12223;42.650;23.364;2023-09-30T04:27:12;2.00;;;1.30;;
11098;SDS011;12223;42.650;23.364;2023-09-30T04:29:39;2.20;;;1.38;;
11098;SDS011;12223;42.650;23.364;2023-09-30T04:32:06;2.67;;;1.50;;
11098;SDS011;12223;42.650;23.364;2023-09-30T04:34:33;2.10;;;1.30;;
11098;SDS011;12223;42.650;23.364;2023-09-30T04:37:00;2.55;;;1.42;;
11098;SDS011;12223;42.650;23.364;2023-09-30T04:42:50;2.30;;;1.40;;
11098;SDS011;12223;42.650;23.364;2023-09-30T04:45:20;1.85;;;1.10;;
11098;SDS011;12223;42.650;23.364;2023-09-30T04:47:49;2.25;;;1.35;;
11098;SDS011;12223;42.650;23.364;2023-09-30T04:53:38;2.53;;;1.38;;
11098;SDS011;12223;42.650;23.364;2023-09-30T04:56:06;3.13;;;1.73;;
11098;SDS011;12223;42.650;23.364;2023-09-30T04:58:34;2.88;;;1.63;;
11098;SDS011;12223;42.650;23.364;2023-09-30T05:01:01;2.45;;;1.40;;
11098;SDS011;12223;42.650;23.364;2023-09-30T05:03:28;3.33;;;1.80;;
11098;SDS011;12223;42.650;23.364;2023-09-30T05:05:55;2.78;;;1.50;;
11098;SDS011;12223;42.650;23.364;2023-09-30T05:11:45;3.20;;;1.67;;
11098;SDS011;12223;42.650;23.364;2023-09-30T05:14:13;3.53;;;1.85;;
11098;SDS011;12223;42.650;23.364;2023-09-30T05:20:03;2.50;;;1.40;;
11098;SDS011;12223;42.650;23.364;2023-09-30T05:22:32;4.10;;;1.85;;
11098;SDS011;12223;42.650;23.364;2023-09-30T05:25:01;4.47;;;1.90;;
11098;SDS011;12223;42.650;23.364;2023-09-30T05:30:51;2.58;;;1.23;;
11098;SDS011;12223;42.650;23.364;2023-09-30T05:33:19;3.20;;;1.48;;
11098;SDS011;12223;42.650;23.364;2023-09-30T05:35:45;4.10;;;1.65;;
11098;SDS011;12223;42.650;23.364;2023-09-30T05:41:34;4.70;;;1.80;;
11098;SDS011;12223;42.650;23.364;2023-09-30T05:44:02;4.90;;;1.92;;
11098;SDS011;12223;42.650;23.364;2023-09-30T05:46:31;3.80;;;1.53;;
11098;SDS011;12223;42.650;23.364;2023-09-30T05:52:20;2.50;;;1.07;;
11098;SDS011;12223;42.650;23.364;2023-09-30T05:54:48;5.82;;;2.00;;
11098;SDS011;12223;42.650;23.364;2023-09-30T05:57:15;2.95;;;1.13;;
11098;SDS011;12223;42.650;23.364;2023-09-30T06:03:05;9.13;;;2.60;;
11098;SDS011;12223;42.650;23.364;2023-09-30T06:05:32;9.65;;;2.95;;
11098;SDS011;12223;42.650;23.364;2023-09-30T06:08:00;10.88;;;3.22;;
11098;SDS011;12223;42.650;23.364;2023-09-30T06:10:30;8.93;;;2.78;;
11098;SDS011;12223;42.650;23.364;2023-09-30T06:12:56;8.18;;;2.55;;
11098;SDS011;12223;42.650;23.364;2023-09-30T06:15:24;8.55;;;2.50;;
11098;SDS011;12223;42.650;23.364;2023-09-30T06:17:52;9.65;;;2.90;;
11098;SDS011;12223;42.650;23.364;2023-09-30T06:20:20;11.50;;;3.28;;
11098;SDS011;12223;42.650;23.364;2023-09-30T06:22:51;11.23;;;3.15;;
11098;SDS011;12223;42.650;23.364;2023-09-30T06:25:19;10.98;;;3.03;;
11098;SDS011;12223;42.650;23.364;2023-09-30T06:27:48;8.07;;;2.30;;
11098;SDS011;12223;42.650;23.364;2023-09-30T06:30:16;10.25;;;2.80;;
11098;SDS011;12223;42.650;23.364;2023-09-30T06:32:44;10.65;;;2.75;;
11098;SDS011;12223;42.650;23.364;2023-09-30T06:35:11;10.63;;;2.80;;
11098;SDS011;12223;42.650;23.364;2023-09-30T06:41:03;11.50;;;2.97;;
11098;SDS011;12223;42.650;23.364;2023-09-30T06:43:30;11.00;;;2.85;;
11098;SDS011;12223;42.650;23.364;2023-09-30T06:45:57;11.70;;;2.90;;
11098;SDS011;12223;42.650;23.364;2023-09-30T06:48:25;9.77;;;2.58;;
11098;SDS011;12223;42.650;23.364;2023-09-30T06:50:52;12.50;;;3.05;;
11098;SDS011;12223;42.650;23.364;2023-09-30T06:53:19;8.90;;;2.40;;
11098;SDS011;12223;42.650;23.364;2023-09-30T06:55:49;9.45;;;2.60;;
11098;SDS011;12223;42.650;23.364;2023-09-30T06:58:19;7.30;;;2.20;;
11098;SDS011;12223;42.650;23.364;2023-09-30T07:00:46;9.00;;;2.53;;
11098;SDS011;12223;42.650;23.364;2023-09-30T07:06:36;11.25;;;3.13;;
11098;SDS011;12223;42.650;23.364;2023-09-30T07:09:04;9.95;;;3.00;;
11098;SDS011;12223;42.650;23.364;2023-09-30T07:11:31;10.17;;;3.00;;
11098;SDS011;12223;42.650;23.364;2023-09-30T07:13:59;8.93;;;2.60;;
11098;SDS011;12223;42.650;23.364;2023-09-30T07:16:27;9.02;;;2.67;;
11098;SDS011;12223;42.650;23.364;2023-09-30T07:18:54;6.97;;;2.30;;
11098;SDS011;12223;42.650;23.364;2023-09-30T07:21:21;7.68;;;2.50;;
11098;SDS011;12223;42.650;23.364;2023-09-30T07:23:48;8.88;;;2.80;;
11098;SDS011;12223;42.650;23.364;2023-09-30T07:26:14;9.20;;;2.97;;
11098;SDS011;12223;42.650;23.364;2023-09-30T07:32:05;9.95;;;2.90;;
11098;SDS011;12223;42.650;23.364;2023-09-30T07:34:33;9.17;;;2.77;;
11098;SDS011;12223;42.650;23.364;2023-09-30T07:37:00;12.00;;;3.30;;
11098;SDS011;12223;42.650;23.364;2023-09-30T07:39:28;10.68;;;2.92;;
11098;SDS011;12223;42.650;23.364;2023-09-30T07:41:56;9.70;;;2.70;;
11098;SDS011;12223;42.650;23.364;2023-09-30T07:44:22;8.90;;;2.53;;
11098;SDS011;12223;42.650;23.364;2023-09-30T07:46:50;9.18;;;2.70;;
11098;SDS011;12223;42.650;23.364;2023-09-30T07:49:19;8.35;;;2.47;;
11098;SDS011;12223;42.650;23.364;2023-09-30T07:51:45;8.55;;;2.55;;
11098;SDS011;12223;42.650;23.364;2023-09-30T07:54:12;7.90;;;2.63;;
11098;SDS011;12223;42.650;23.364;2023-09-30T07:56:39;7.25;;;2.33;;
11098;SDS011;12223;42.650;23.364;2023-09-30T08:02:28;9.55;;;2.85;;
11098;SDS011;12223;42.650;23.364;2023-09-30T08:04:59;10.93;;;3.10;;
11098;SDS011;12223;42.650;23.364;2023-09-30T08:07:26;11.18;;;3.20;;
11098;SDS011;12223;42.650;23.364;2023-09-30T08:13:14;6.18;;;1.80;;
11098;SDS011;12223;42.650;23.364;2023-09-30T08:15:42;6.70;;;2.03;;
11098;SDS011;12223;42.650;23.364;2023-09-30T08:18:09;5.60;;;1.92;;
11098;SDS011;12223;42.650;23.364;2023-09-30T08:20:40;6.75;;;2.15;;
11098;SDS011;12223;42.650;23.364;2023-09-30T08:23:07;8.10;;;2.47;;
11098;SDS011;12223;42.650;23.364;2023-09-30T08:28:55;7.00;;;2.22;;
11098;SDS011;12223;42.650;23.364;2023-09-30T08:31:22;7.10;;;2.35;;
11098;SDS011;12223;42.650;23.364;2023-09-30T08:33:49;6.75;;;2.20;;
11098;SDS011;12223;42.650;23.364;2023-09-30T08:36:17;5.83;;;1.93;;
11098;SDS011;12223;42.650;23.364;2023-09-30T08:38:44;7.07;;;2.22;;
11098;SDS011;12223;42.650;23.364;2023-09-30T08:41:11;7.82;;;2.47;;
11098;SDS011;12223;42.650;23.364;2023-09-30T08:43:50;6.28;;;2.13;;
11098;SDS011;12223;42.650;23.364;2023-09-30T08:46:22;7.82;;;2.45;;
11098;SDS011;12223;42.650;23.364;2023-09-30T08:48:50;6.43;;;2.17;;
11098;SDS011;12223;42.650;23.364;2023-09-30T08:51:20;8.85;;;2.83;;
11098;SDS011;12223;42.650;23.364;2023-09-30T08:53:47;7.40;;;2.42;;
11098;SDS011;12223;42.650;23.364;2023-09-30T08:59:37;10.38;;;3.22;;
11098;SDS011;12223;42.650;23.364;2023-09-30T09:02:07;8.65;;;2.83;;
11098;SDS011;12223;42.650;23.364;2023-09-30T09:04:35;9.25;;;2.92;;
11098;SDS011;12223;42.650;23.364;2023-09-30T09:07:04;8.20;;;2.70;;
11098;SDS011;12223;42.650;23.364;2023-09-30T09:09:31;7.65;;;2.50;;
11098;SDS011;12223;42.650;23.364;2023-09-30T09:11:58;7.30;;;2.43;;
11098;SDS011;12223;42.650;23.364;2023-09-30T09:17:47;7.90;;;2.53;;
11098;SDS011;12223;42.650;23.364;2023-09-30T09:20:16;8.23;;;2.55;;
11098;SDS011;12223;42.650;23.364;2023-09-30T09:22:47;9.13;;;2.75;;
11098;SDS011;12223;42.650;23.364;2023-09-30T09:28:40;7.68;;;2.40;;
11098;SDS011;12223;42.650;23.364;2023-09-30T09:31:20;7.88;;;2.45;;
11098;SDS011;12223;42.650;23.364;2023-09-30T09:33:48;7.35;;;2.25;;
11098;SDS011;12223;42.650;23.364;2023-09-30T09:36:16;7.22;;;2.20;;
11098;SDS011;12223;42.650;23.364;2023-09-30T09:38:46;6.93;;;2.17;;
11098;SDS011;12223;42.650;23.364;2023-09-30T09:41:15;6.93;;;2.28;;
11098;SDS011;12223;42.650;23.364;2023-09-30T09:43:42;6.38;;;2.00;;
11098;SDS011;12223;42.650;23.364;2023-09-30T09:46:09;5.80;;;1.88;;
11098;SDS011;12223;42.650;23.364;2023-09-30T09:48:37;6.03;;;2.00;;
11098;SDS011;12223;42.650;23.364;2023-09-30T09:51:04;7.38;;;2.17;;
11098;SDS011;12223;42.650;23.364;2023-09-30T09:53:34;6.60;;;2.08;;
11098;SDS011;12223;42.650;23.364;2023-09-30T09:56:04;8.20;;;2.53;;
11098;SDS011;12223;42.650;23.364;2023-09-30T09:58:35;5.07;;;1.73;;
11098;SDS011;12223;42.650;23.364;2023-09-30T10:01:04;4.88;;;1.65;;
11098;SDS011;12223;42.650;23.364;2023-09-30T10:03:32;5.27;;;1.70;;
11098;SDS011;12223;42.650;23.364;2023-09-30T10:05:59;5.78;;;1.90;;
11098;SDS011;12223;42.650;23.364;2023-09-30T10:08:31;7.45;;;2.30;;
11098;SDS011;12223;42.650;23.364;2023-09-30T10:11:00;6.93;;;2.22;;
11098;SDS011;12223;42.650;23.364;2023-09-30T10:19:19;5.75;;;2.00;;
11098;SDS011;12223;42.650;23.364;2023-09-30T10:31:11;10.57;;;3.10;;
11098;SDS011;12223;42.650;23.364;2023-09-30T10:39:52;9.05;;;2.88;;
11098;SDS011;12223;42.650;23.364;2023-09-30T10:51:15;7.72;;;2.60;;
11098;SDS011;12223;42.650;23.364;2023-09-30T10:53:49;9.13;;;3.00;;
11098;SDS011;12223;42.650;23.364;2023-09-30T10:56:18;8.32;;;2.63;;
11098;SDS011;12223;42.650;23.364;2023-09-30T10:58:46;8.37;;;2.60;;
11098;SDS011;12223;42.650;23.364;2023-09-30T11:04:46;7.75;;;2.40;;
11098;SDS011;12223;42.650;23.364;2023-09-30T11:10:35;8.10;;;2.77;;
11098;SDS011;12223;42.650;23.364;2023-09-30T11:13:02;8.70;;;2.65;;
11098;SDS011;12223;42.650;23.364;2023-09-30T11:15:30;6.10;;;2.30;;
11098;SDS011;12223;42.650;23.364;2023-09-30T11:21:19;7.63;;;2.30;;
11098;SDS011;12223;42.650;23.364;2023-09-30T11:23:46;8.50;;;2.47;;
11098;SDS011;12223;42.650;23.364;2023-09-30T11:26:14;5.47;;;1.80;;
11098;SDS011;12223;42.650;23.364;2023-09-30T11:28:41;7.57;;;2.10;;
11098;SDS011;12223;42.650;23.364;2023-09-30T11:31:09;6.43;;;2.00;;
11098;SDS011;12223;42.650;23.364;2023-09-30T11:33:48;6.10;;;1.98;;
11098;SDS011;12223;42.650;23.364;2023-09-30T11:36:17;6.03;;;2.08;;
11098;SDS011;12223;42.650;23.364;2023-09-30T11:38:46;5.13;;;1.83;;
11098;SDS011;12223;42.650;23.364;2023-09-30T11:44:44;6.95;;;2.10;;
11098;SDS011;12223;42.650;23.364;2023-09-30T11:47:12;7.35;;;2.15;;
11098;SDS011;12223;42.650;23.364;2023-09-30T11:49:40;7.07;;;2.07;;
11098;SDS011;12223;42.650;23.364;2023-09-30T11:52:10;5.88;;;1.98;;
11098;SDS011;12223;42.650;23.364;2023-09-30T11:54:41;4.75;;;1.85;;
11098;SDS011;12223;42.650;23.364;2023-09-30T11:57:09;4.22;;;1.73;;
11098;SDS011;12223;42.650;23.364;2023-09-30T11:59:40;3.63;;;1.58;;
11098;SDS011;12223;42.650;23.364;2023-09-30T12:02:08;4.78;;;1.92;;
11098;SDS011;12223;42.650;23.364;2023-09-30T12:04:35;4.13;;;1.60;;
11098;SDS011;12223;42.650;23.364;2023-09-30T12:07:02;3.60;;;1.52;;
11098;SDS011;12223;42.650;23.364;2023-09-30T12:09:29;3.72;;;1.60;;
11098;SDS011;12223;42.650;23.364;2023-09-30T12:12:01;3.97;;;1.60;;
11098;SDS011;12223;42.650;23.364;2023-09-30T12:14:28;4.20;;;1.75;;
11098;SDS011;12223;42.650;23.364;2023-09-30T12:16:56;2.95;;;1.38;;
11098;SDS011;12223;42.650;23.364;2023-09-30T12:19:24;3.63;;;1.63;;
11098;SDS011;12223;42.650;23.364;2023-09-30T12:21:54;3.67;;;1.63;;
11098;SDS011;12223;42.650;23.364;2023-09-30T12:24:21;3.80;;;1.63;;
11098;SDS011;12223;42.650;23.364;2023-09-30T12:26:50;3.30;;;1.53;;
11098;SDS011;12223;42.650;23.364;2023-09-30T12:29:19;3.55;;;1.60;;
11098;SDS011;12223;42.650;23.364;2023-09-30T12:35:09;3.83;;;1.73;;
11098;SDS011;12223;42.650;23.364;2023-09-30T12:37:37;4.45;;;2.00;;
11098;SDS011;12223;42.650;23.364;2023-09-30T12:40:04;3.77;;;1.60;;
11098;SDS011;12223;42.650;23.364;2023-09-30T12:42:33;3.85;;;1.67;;
11098;SDS011;12223;42.650;23.364;2023-09-30T12:45:02;3.90;;;1.70;;
11098;SDS011;12223;42.650;23.364;2023-09-30T12:47:32;4.15;;;1.92;;
11098;SDS011;12223;42.650;23.364;2023-09-30T12:49:59;3.13;;;1.50;;
11098;SDS011;12223;42.650;23.364;2023-09-30T12:52:27;3.23;;;1.50;;
11098;SDS011;12223;42.650;23.364;2023-09-30T12:54:55;3.67;;;1.60;;
11098;SDS011;12223;42.650;23.364;2023-09-30T12:57:23;3.28;;;1.50;;
11098;SDS011;12223;42.650;23.364;2023-09-30T12:59:51;3.20;;;1.58;;
11098;SDS011;12223;42.650;23.364;2023-09-30T13:05:45;3.65;;;1.75;;
11098;SDS011;12223;42.650;23.364;2023-09-30T13:08:13;4.75;;;2.05;;
11098;SDS011;12223;42.650;23.364;2023-09-30T13:10:45;3.53;;;1.73;;
11098;SDS011;12223;42.650;23.364;2023-09-30T13:13:17;4.47;;;2.00;;
11098;SDS011;12223;42.650;23.364;2023-09-30T13:15:45;3.08;;;1.48;;
11098;SDS011;12223;42.650;23.364;2023-09-30T13:21:35;0.80;;;0.45;;
11098;SDS011;12223;42.650;23.364;2023-09-30T13:24:02;4.03;;;1.80;;
11098;SDS011;12223;42.650;23.364;2023-09-30T13:26:32;3.58;;;1.65;;
11098;SDS011;12223;42.650;23.364;2023-09-30T13:32:20;4.30;;;2.00;;
11098;SDS011;12223;42.650;23.364;2023-09-30T13:34:48;4.32;;;1.95;;
11098;SDS011;12223;42.650;23.364;2023-09-30T13:37:18;3.97;;;1.80;;
11098;SDS011;12223;42.650;23.364;2023-09-30T13:39:44;4.00;;;1.88;;
11098;SDS011;12223;42.650;23.364;2023-09-30T13:42:12;3.78;;;1.77;;
11098;SDS011;12223;42.650;23.364;2023-09-30T13:44:38;3.83;;;1.70;;
11098;SDS011;12223;42.650;23.364;2023-09-30T13:47:05;3.03;;;1.42;;
11098;SDS011;12223;42.650;23.364;2023-09-30T13:49:33;3.15;;;1.50;;
11098;SDS011;12223;42.650;23.364;2023-09-30T13:52:01;3.00;;;1.40;;
11098;SDS011;12223;42.650;23.364;2023-09-30T13:57:53;3.88;;;1.83;;
11098;SDS011;12223;42.650;23.364;2023-09-30T14:00:21;3.37;;;1.60;;
11098;SDS011;12223;42.650;23.364;2023-09-30T14:02:50;3.00;;;1.60;;
11098;SDS011;12223;42.650;23.364;2023-09-30T14:05:17;3.58;;;1.65;;
11098;SDS011;12223;42.650;23.364;2023-09-30T14:07:45;2.58;;;1.30;;
11098;SDS011;12223;42.650;23.364;2023-09-30T14:10:13;3.13;;;1.52;;
11098;SDS011;12223;42.650;23.364;2023-09-30T14:12:40;2.92;;;1.48;;
11098;SDS011;12223;42.650;23.364;2023-09-30T14:15:10;3.03;;;1.52;;
11098;SDS011;12223;42.650;23.364;2023-09-30T14:21:01;3.40;;;1.67;;
11098;SDS011;12223;42.650;23.364;2023-09-30T14:23:28;4.18;;;1.92;;
11098;SDS011;12223;42.650;23.364;2023-09-30T14:25:56;3.97;;;1.88;;
11098;SDS011;12223;42.650;23.364;2023-09-30T14:28:24;3.38;;;1.65;;
11098;SDS011;12223;42.650;23.364;2023-09-30T14:30:53;3.97;;;1.92;;
11098;SDS011;12223;42.650;23.364;2023-09-30T14:33:20;4.38;;;2.08;;
11098;SDS011;12223;42.650;23.364;2023-09-30T14:35:46;3.80;;;1.70;;
11098;SDS011;12223;42.650;23.364;2023-09-30T14:38:14;4.05;;;1.90;;
11098;SDS011;12223;42.650;23.364;2023-09-30T14:40:41;4.65;;;2.15;;
11098;SDS011;12223;42.650;23.364;2023-09-30T14:43:09;3.88;;;1.85;;
11098;SDS011;12223;42.650;23.364;2023-09-30T14:45:39;2.88;;;1.50;;
11098;SDS011;12223;42.650;23.364;2023-09-30T14:48:08;4.90;;;2.30;;
11098;SDS011;12223;42.650;23.364;2023-09-30T14:50:38;3.72;;;1.70;;
11098;SDS011;12223;42.650;23.364;2023-09-30T14:53:14;3.95;;;1.85;;
11098;SDS011;12223;42.650;23.364;2023-09-30T14:55:41;4.82;;;2.28;;
11098;SDS011;12223;42.650;23.364;2023-09-30T14:58:10;3.75;;;1.83;;
11098;SDS011;12223;42.650;23.364;2023-09-30T15:00:37;2.65;;;1.42;;
11098;SDS011;12223;42.650;23.364;2023-09-30T15:06:31;3.15;;;1.60;;
11098;SDS011;12223;42.650;23.364;2023-09-30T15:08:59;2.88;;;1.48;;
11098;SDS011;12223;42.650;23.364;2023-09-30T15:11:27;3.10;;;1.60;;
11098;SDS011;12223;42.650;23.364;2023-09-30T15:17:15;1.75;;;0.85;;
11098;SDS011;12223;42.650;23.364;2023-09-30T15:19:42;1.40;;;0.80;;
11098;SDS011;12223;42.650;23.364;2023-09-30T15:22:14;1.40;;;0.73;;
11098;SDS011;12223;42.650;23.364;2023-09-30T15:24:42;1.83;;;0.95;;
11098;SDS011;12223;42.650;23.364;2023-09-30T15:27:09;2.25;;;1.15;;
11098;SDS011;12223;42.650;23.364;2023-09-30T15:29:36;2.15;;;1.10;;
11098;SDS011;12223;42.650;23.364;2023-09-30T15:32:04;2.17;;;1.17;;
11098;SDS011;12223;42.650;23.364;2023-09-30T15:34:31;2.78;;;1.35;;
11098;SDS011;12223;42.650;23.364;2023-09-30T15:37:03;1.55;;;0.90;;
11098;SDS011;12223;42.650;23.364;2023-09-30T15:39:32;2.42;;;1.27;;
11098;SDS011;12223;42.650;23.364;2023-09-30T15:42:04;1.42;;;0.90;;
11098;SDS011;12223;42.650;23.364;2023-09-30T15:44:31;3.38;;;1.70;;
11098;SDS011;12223;42.650;23.364;2023-09-30T15:46:58;2.75;;;1.30;;
11098;SDS011;12223;42.650;23.364;2023-09-30T15:49:25;2.60;;;1.38;;
11098;SDS011;12223;42.650;23.364;2023-09-30T15:51:53;2.53;;;1.30;;
11098;SDS011;12223;42.650;23.364;2023-09-30T15:54:20;2.00;;;1.07;;
11098;SDS011;12223;42.650;23.364;2023-09-30T15:56:48;2.47;;;1.25;;
11098;SDS011;12223;42.650;23.364;2023-09-30T15:59:15;2.33;;;1.17;;
11098;SDS011;12223;42.650;23.364;2023-09-30T16:01:42;2.13;;;1.20;;
11098;SDS011;12223;42.650;23.364;2023-09-30T16:04:10;1.92;;;1.02;;
11098;SDS011;12223;42.650;23.364;2023-09-30T16:06:39;2.08;;;1.00;;
11098;SDS011;12223;42.650;23.364;2023-09-30T16:09:06;1.67;;;0.90;;
11098;SDS011;12223;42.650;23.364;2023-09-30T16:11:33;2.63;;;1.30;;
11098;SDS011;12223;42.650;23.364;2023-09-30T16:14:02;1.77;;;1.00;;
11098;SDS011;12223;42.650;23.364;2023-09-30T16:16:29;2.33;;;1.25;;
11098;SDS011;12223;42.650;23.364;2023-09-30T16:18:56;2.80;;;1.47;;
11098;SDS011;12223;42.650;23.364;2023-09-30T16:21:24;2.80;;;1.48;;
11098;SDS011;12223;42.650;23.364;2023-09-30T16:23:51;3.00;;;1.52;;
11098;SDS011;12223;42.650;23.364;2023-09-30T16:26:18;3.00;;;1.48;;
11098;SDS011;12223;42.650;23.364;2023-09-30T16:28:45;2.92;;;1.40;;
11098;SDS011;12223;42.650;23.364;2023-09-30T16:31:14;1.40;;;0.80;;
11098;SDS011;12223;42.650;23.364;2023-09-30T16:33:41;2.38;;;1.15;;
11098;SDS011;12223;42.650;23.364;2023-09-30T16:36:10;2.58;;;1.35;;
11098;SDS011;12223;42.650;23.364;2023-09-30T16:38:37;2.22;;;1.15;;
11098;SDS011;12223;42.650;23.364;2023-09-30T16:41:04;3.40;;;1.58;;
11098;SDS011;12223;42.650;23.364;2023-09-30T16:43:31;1.90;;;1.00;;
11098;SDS011;12223;42.650;23.364;2023-09-30T16:46:00;1.38;;;0.80;;
11098;SDS011;12223;42.650;23.364;2023-09-30T16:48:30;2.78;;;1.38;;
11098;SDS011;12223;42.650;23.364;2023-09-30T16:50:58;1.85;;;1.02;;
11098;SDS011;12223;42.650;23.364;2023-09-30T16:53:26;1.95;;;1.10;;
11098;SDS011;12223;42.650;23.364;2023-09-30T16:55:53;1.60;;;0.88;;
11098;SDS011;12223;42.650;23.364;2023-09-30T16:58:20;2.05;;;1.13;;
11098;SDS011;12223;42.650;23.364;2023-09-30T17:00:47;2.30;;;1.20;;
11098;SDS011;12223;42.650;23.364;2023-09-30T17:03:16;2.97;;;1.40;;
11098;SDS011;12223;42.650;23.364;2023-09-30T17:05:44;2.00;;;1.15;;
11098;SDS011;12223;42.650;23.364;2023-09-30T17:08:11;2.83;;;1.50;;
11098;SDS011;12223;42.650;23.364;2023-09-30T17:10:38;2.33;;;1.20;;
11098;SDS011;12223;42.650;23.364;2023-09-30T17:13:05;2.13;;;1.17;;